Messwerte Yap

Temperatur

Temperatur
°C
1638511200 17.00 17.00 28
1638514800 18.00 18.00 28
1638518400 19.00 19.00 28
1638522000 20.00 20.00 28
1638525600 21.00 21.00 27
1638529200 22.00 22.00 28
1638532800 23.00 23.00 27
1638536400 0.00 0.00 27
1638540000 1.00 1.00 28
1638543600 2.00 2.00 28
1638547200 3.00 3.00 26
1638550800 4.00 4.00 27
1638554400 5.00 5.00 28
1638558000 6.00 6.00
1638561600 7.00 7.00 27
1638565200 8.00 8.00 27
1638568800 9.00 9.00
1638572400 10.00 10.00 28
1638576000 11.00 11.00 28
1638579600 12.00 12.00 28
1638583200 13.00 13.00 28
1638586800 14.00 14.00 29
1638590400 15.00 15.00 27
1638594000 16.00 16.00 29

Aktuellste Messwerte

Wettercharakter
Wetter: bedeckt
Temperatur
27 °C
Feuchtigkeit
94 %
Wind
5 km/h, -
Luftdruck
1004 hPa
Messzeit: 4. Dezember 2021, 17.00Datenquelle: METAR

Weitere Messstationen in der Nähe

Messstation Temperatur Entfernung
Koror 29 °C 462 km

Wind

Windrichtung Böen Mittelwind
° km/h km/h
1638511200 17.00 16.00 - 17.00 260° 15
1638514800 18.00 17.00 - 18.00 5
1638518400 19.00 18.00 - 19.00 10
1638522000 20.00 19.00 - 20.00 10
1638525600 21.00 20.00 - 21.00 10
1638529200 22.00 21.00 - 22.00 280° 20
1638532800 23.00 22.00 - 23.00 260° 15
1638536400 0.00 23.00 - 0.00 280° 15
1638540000 1.00 0.00 - 1.00 290° 15
1638543600 2.00 1.00 - 2.00 290° 15
1638547200 3.00 2.00 - 3.00 290° 15
1638550800 4.00 3.00 - 4.00 300° 15
1638554400 5.00 4.00 - 5.00 290° 20
1638558000 6.00 5.00 - 6.00
1638561600 7.00 6.00 - 7.00 310° 20
1638565200 8.00 7.00 - 8.00 10
1638568800 9.00 8.00 - 9.00
1638572400 10.00 9.00 - 10.00 330° 20
1638576000 11.00 10.00 - 11.00 340° 15
1638579600 12.00 11.00 - 12.00 10° 15
1638583200 13.00 12.00 - 13.00 20° 20
1638586800 14.00 13.00 - 14.00 20° 15
1638590400 15.00 14.00 - 15.00 5
1638594000 16.00 15.00 - 16.00 5

Ihre Wetterstation

Fehlt Ihre Wetterstation auf unserem Portal?

Schreiben Sie an network@meteonews.ch

Klima

Wann ist es am wärmsten? Wann regnet es am wenigsten? Unsere Klimadaten geben Auskunft.